Artemas, Pennsylvania
Current Conditions -  °F | °C
As of 1:34 PM on Thursday 23 Oct 2014 (Local Time) from KCBE Reporting Station
Clear Clear  
Wind Chill: 15°   Ceiling: Unl
Heat Index: 15°   Visibility: 10mi
Dew Point:   Wind: 13mph
Humidity: 51%   Direction: 330°NNW
Pressure: 30.03"   Gusts: 26mph
Location:  39.75°N, 78.44°W
Report Text: KCBE 231734Z AUTO 33011G23KT 10SM CLR 15/05 A3003 RMK AO1
Loading
Personal Weather Stations






























Interactive Weather Map
Tropical Storm Tracking
New forecast layout! Learn more

10-Day Weather Forecast

Advertisements
Track Severe Weather on mobile